createdAt,value
2018-12-12T00:00:33.858Z,2.43
2018-12-12T00:03:00.890Z,3.53
2018-12-12T00:05:27.381Z,3.30
2018-12-12T00:07:53.853Z,2.80
2018-12-12T00:10:20.467Z,3.50
2018-12-12T00:12:47.788Z,3.20
2018-12-12T00:15:16.115Z,6.53
2018-12-12T00:17:43.111Z,3.10
2018-12-12T00:20:09.675Z,3.80
2018-12-12T00:22:36.158Z,3.33
2018-12-12T00:25:03.442Z,4.00
2018-12-12T00:27:30.002Z,3.80
2018-12-12T00:29:56.513Z,3.90
2018-12-12T00:32:23.124Z,4.07
2018-12-12T00:34:49.585Z,4.00
2018-12-12T00:37:16.092Z,3.97
2018-12-12T00:39:42.654Z,3.40
2018-12-12T00:42:09.326Z,3.27
2018-12-12T00:44:35.873Z,3.37
2018-12-12T00:47:02.922Z,3.83
2018-12-12T00:49:29.386Z,3.70
2018-12-12T00:51:56.094Z,4.00
2018-12-12T00:54:22.666Z,4.10
2018-12-12T00:56:50.083Z,5.57
2018-12-12T00:59:16.668Z,3.97
2018-12-12T01:01:43.264Z,4.93
2018-12-12T01:04:09.827Z,4.20
2018-12-12T01:06:36.408Z,4.40
2018-12-12T01:09:05.185Z,4.80
2018-12-12T01:11:37.881Z,4.67
2018-12-12T01:14:04.447Z,4.70
2018-12-12T01:16:31.039Z,4.70
2018-12-12T01:18:57.504Z,5.23
2018-12-12T01:21:24.110Z,5.20
2018-12-12T01:23:50.590Z,5.03
2018-12-12T01:26:17.189Z,5.30
2018-12-12T01:28:43.659Z,5.70
2018-12-12T01:31:10.145Z,5.80
2018-12-12T01:33:36.615Z,5.40
2018-12-12T01:36:03.235Z,5.30
2018-12-12T01:38:30.131Z,5.33
2018-12-12T01:40:56.719Z,5.20
2018-12-12T01:43:23.207Z,6.13
2018-12-12T01:45:49.716Z,6.00
2018-12-12T01:48:16.298Z,5.33
2018-12-12T01:50:42.882Z,6.50
2018-12-12T01:53:09.522Z,4.87
2018-12-12T01:55:36.033Z,6.37
2018-12-12T01:58:02.657Z,6.70
2018-12-12T02:00:29.157Z,6.03
2018-12-12T02:02:55.624Z,6.20
2018-12-12T02:05:21.949Z,5.27
2018-12-12T02:07:48.659Z,6.00
2018-12-12T02:10:15.097Z,6.40
2018-12-12T02:12:41.663Z,6.17
2018-12-12T02:15:08.100Z,5.70
2018-12-12T02:17:34.567Z,5.13
2018-12-12T02:20:07.668Z,8.53
2018-12-12T02:22:34.273Z,5.13
2018-12-12T02:25:00.914Z,7.13
2018-12-12T02:27:27.496Z,6.27
2018-12-12T02:29:54.070Z,6.60
2018-12-12T02:32:20.621Z,7.80
2018-12-12T02:34:47.259Z,4.70
2018-12-12T02:37:13.764Z,6.23
2018-12-12T02:39:40.517Z,5.30
2018-12-12T02:42:07.341Z,5.13
2018-12-12T02:44:33.912Z,4.77
2018-12-12T02:47:00.433Z,5.10
2018-12-12T02:49:26.796Z,5.10
2018-12-12T02:51:53.297Z,4.80
2018-12-12T02:54:19.814Z,5.70
2018-12-12T02:56:46.435Z,7.17
2018-12-12T02:59:13.007Z,6.53
2018-12-12T03:01:39.619Z,6.77
2018-12-12T03:04:06.222Z,5.00
2018-12-12T03:06:32.713Z,7.03
2018-12-12T03:08:59.176Z,5.47
2018-12-12T03:11:25.788Z,5.70
2018-12-12T03:13:52.384Z,5.57
2018-12-12T03:16:19.194Z,6.57
2018-12-12T03:18:45.785Z,8.17
2018-12-12T03:21:12.382Z,6.37
2018-12-12T03:23:38.842Z,6.03
2018-12-12T03:26:05.457Z,5.73
2018-12-12T03:28:32.146Z,5.47
2018-12-12T03:30:59.390Z,6.40
2018-12-12T03:33:25.944Z,5.47
2018-12-12T03:35:52.533Z,5.53
2018-12-12T03:38:19.329Z,5.70
2018-12-12T03:40:46.148Z,6.47
2018-12-12T03:43:12.609Z,6.50
2018-12-12T03:45:39.117Z,6.23
2018-12-12T03:48:05.610Z,5.23
2018-12-12T03:50:32.435Z,6.00
2018-12-12T03:52:59.011Z,5.40
2018-12-12T03:55:25.615Z,6.70
2018-12-12T03:57:52.176Z,7.67
2018-12-12T04:00:18.759Z,7.00
2018-12-12T04:02:45.210Z,4.80
2018-12-12T04:05:11.710Z,6.50
2018-12-12T04:07:38.186Z,6.30
2018-12-12T04:10:05.173Z,5.23
2018-12-12T04:12:31.793Z,7.23
2018-12-12T04:14:59.274Z,6.80
2018-12-12T04:17:26.055Z,7.30
2018-12-12T04:19:52.734Z,6.17
2018-12-12T04:22:20.247Z,6.10
2018-12-12T04:24:47.112Z,5.10
2018-12-12T04:27:14.227Z,6.60
2018-12-12T04:29:40.702Z,5.93
2018-12-12T04:32:07.186Z,8.77
2018-12-12T04:34:33.795Z,6.40
2018-12-12T04:37:00.432Z,5.70
2018-12-12T04:39:26.915Z,6.60
2018-12-12T04:41:53.438Z,6.03
2018-12-12T04:44:20.011Z,6.00
2018-12-12T04:46:46.501Z,6.50
2018-12-12T04:49:12.970Z,9.57
2018-12-12T04:51:39.474Z,6.83
2018-12-12T04:54:05.943Z,7.20
2018-12-12T04:56:32.463Z,6.77
2018-12-12T04:58:59.167Z,7.43
2018-12-12T05:01:26.301Z,7.80
2018-12-12T05:03:52.875Z,6.63
2018-12-12T05:06:19.478Z,7.90
2018-12-12T05:08:46.258Z,7.37
2018-12-12T05:11:12.822Z,8.60
2018-12-12T05:13:39.425Z,9.27
2018-12-12T05:16:06.015Z,7.67
2018-12-12T05:18:32.573Z,7.80
2018-12-12T05:20:59.196Z,7.67
2018-12-12T05:23:25.790Z,7.93
2018-12-12T05:25:52.286Z,7.67
2018-12-12T05:28:20.581Z,9.13
2018-12-12T05:30:48.660Z,10.57
2018-12-12T05:33:15.166Z,7.73
2018-12-12T05:35:41.737Z,10.77
2018-12-12T05:38:08.241Z,8.53
2018-12-12T05:40:35.136Z,9.73
2018-12-12T05:43:01.845Z,9.03
2018-12-12T05:45:28.770Z,9.80
2018-12-12T05:47:55.268Z,8.83
2018-12-12T05:50:21.835Z,9.10
2018-12-12T05:52:48.534Z,9.40
2018-12-12T05:55:15.120Z,9.47
2018-12-12T05:57:41.649Z,8.83
2018-12-12T06:00:09.160Z,9.93
2018-12-12T06:02:35.830Z,8.97
2018-12-12T06:05:02.786Z,9.80
2018-12-12T06:07:29.377Z,11.00
2018-12-12T06:09:55.890Z,10.13
2018-12-12T06:12:22.343Z,11.03
2018-12-12T06:14:49.057Z,9.97
2018-12-12T06:17:16.833Z,11.63
2018-12-12T06:19:45.463Z,8.87
2018-12-12T06:22:12.697Z,12.03
2018-12-12T06:24:39.506Z,9.07
2018-12-12T06:27:07.543Z,10.77
2018-12-12T06:29:34.419Z,7.87
2018-12-12T06:32:00.936Z,8.00
2018-12-12T06:34:27.442Z,9.27
2018-12-12T06:36:54.806Z,7.00
2018-12-12T06:39:22.002Z,6.63
2018-12-12T06:41:48.583Z,6.70
2018-12-12T06:44:15.279Z,7.53
2018-12-12T06:46:41.739Z,9.60
2018-12-12T06:49:08.220Z,8.77
2018-12-12T06:51:34.730Z,7.13
2018-12-12T06:54:07.156Z,7.70
2018-12-12T06:56:34.169Z,7.83
2018-12-12T06:59:00.837Z,8.07
2018-12-12T07:01:27.361Z,7.07
2018-12-12T07:03:53.943Z,7.47
2018-12-12T07:06:20.539Z,9.37
2018-12-12T07:08:47.006Z,7.93
2018-12-12T07:11:13.522Z,10.10
2018-12-12T07:13:39.998Z,8.10
2018-12-12T07:16:06.610Z,9.90
2018-12-12T07:18:33.085Z,9.27
2018-12-12T07:20:59.583Z,9.10
2018-12-12T07:23:26.199Z,9.60
2018-12-12T07:25:52.906Z,13.33
2018-12-12T07:28:19.870Z,11.67
2018-12-12T07:30:46.481Z,10.00
2018-12-12T07:33:12.974Z,8.83
2018-12-12T07:35:39.547Z,9.87
2018-12-12T07:38:06.304Z,8.93
2018-12-12T07:40:32.773Z,9.57
2018-12-12T07:42:59.484Z,9.60
2018-12-12T07:45:25.983Z,8.40
2018-12-12T07:47:52.590Z,10.10
2018-12-12T07:50:19.071Z,8.70
2018-12-12T07:52:45.570Z,9.50
2018-12-12T07:55:12.040Z,9.40
2018-12-12T07:57:38.530Z,16.23
2018-12-12T08:00:07.425Z,9.40
2018-12-12T08:02:33.929Z,15.57
2018-12-12T08:05:03.915Z,14.47
2018-12-12T08:07:31.230Z,13.87
2018-12-12T08:09:57.787Z,11.27
2018-12-12T08:12:24.507Z,12.90
2018-12-12T08:14:51.081Z,10.67
2018-12-12T08:17:17.573Z,12.30
2018-12-12T08:19:44.045Z,9.97
2018-12-12T08:22:10.547Z,11.73
2018-12-12T08:24:38.723Z,9.63
2018-12-12T08:27:05.223Z,10.87
2018-12-12T08:29:31.730Z,9.97
2018-12-12T08:31:58.447Z,10.50
2018-12-12T08:34:25.109Z,15.70
2018-12-12T08:36:52.103Z,11.63
2018-12-12T08:39:18.694Z,9.87
2018-12-12T08:41:45.252Z,13.17
2018-12-12T08:44:11.838Z,10.03
2018-12-12T08:46:39.398Z,9.90
2018-12-12T08:49:08.166Z,10.13
2018-12-12T08:51:35.754Z,10.47
2018-12-12T08:54:03.274Z,11.13
2018-12-12T08:56:29.953Z,9.73
2018-12-12T08:58:57.543Z,12.13
2018-12-12T09:01:24.429Z,10.40
2018-12-12T09:03:51.116Z,9.17
2018-12-12T09:06:17.714Z,10.27
2018-12-12T09:08:45.307Z,8.80
2018-12-12T09:11:12.614Z,10.80
2018-12-12T09:13:39.076Z,8.53
2018-12-12T09:16:05.685Z,9.80
2018-12-12T09:18:32.194Z,9.73
2018-12-12T09:20:58.801Z,15.50
2018-12-12T09:23:25.479Z,10.73
2018-12-12T09:25:51.998Z,11.50
2018-12-12T09:28:18.463Z,8.20
2018-12-12T09:30:45.073Z,11.43
2018-12-12T09:33:11.666Z,8.43
2018-12-12T09:35:38.299Z,10.27
2018-12-12T09:38:04.908Z,8.60
2018-12-12T09:40:31.470Z,11.30
2018-12-12T09:42:58.039Z,8.63
2018-12-12T09:45:25.246Z,9.53
2018-12-12T09:47:51.912Z,9.30
2018-12-12T09:50:19.747Z,10.37
2018-12-12T09:52:47.221Z,8.10
2018-12-12T09:55:16.305Z,7.97
2018-12-12T09:57:43.211Z,9.23
2018-12-12T10:00:10.726Z,8.80
2018-12-12T10:02:37.285Z,7.80
2018-12-12T10:05:04.249Z,8.73
2018-12-12T10:07:30.706Z,9.10
2018-12-12T10:09:57.194Z,8.90
2018-12-12T10:12:23.651Z,10.47
2018-12-12T10:14:50.134Z,11.57
2018-12-12T10:17:16.714Z,8.33
2018-12-12T10:19:43.173Z,8.13
2018-12-12T10:22:09.895Z,9.77
2018-12-12T10:24:36.466Z,9.93
2018-12-12T10:27:03.118Z,9.43
2018-12-12T10:29:29.662Z,8.13
2018-12-12T10:31:56.273Z,8.53
2018-12-12T10:34:22.850Z,8.80
2018-12-12T10:36:49.363Z,8.57
2018-12-12T10:39:15.931Z,8.37
2018-12-12T10:41:42.538Z,6.73
2018-12-12T10:44:08.997Z,8.10
2018-12-12T10:46:35.506Z,8.13
2018-12-12T10:49:02.317Z,7.73
2018-12-12T10:51:28.839Z,8.50
2018-12-12T10:53:55.315Z,6.50
2018-12-12T10:56:21.907Z,7.27
2018-12-12T10:58:48.387Z,6.00
2018-12-12T11:01:21.067Z,6.07
2018-12-12T11:03:47.529Z,5.40
2018-12-12T11:06:13.934Z,6.77
2018-12-12T11:08:40.293Z,5.50
2018-12-12T11:11:06.926Z,5.87
2018-12-12T11:13:33.393Z,5.70
2018-12-12T11:16:00.016Z,5.23
2018-12-12T11:18:26.605Z,4.70
2018-12-12T11:20:53.066Z,5.23
2018-12-12T11:23:19.432Z,6.93
2018-12-12T11:25:45.862Z,5.13
2018-12-12T11:28:12.310Z,5.07
2018-12-12T11:30:38.786Z,4.83
2018-12-12T11:33:05.189Z,4.90
2018-12-12T11:35:31.665Z,5.27
2018-12-12T11:37:58.059Z,5.80
2018-12-12T11:40:24.514Z,5.17
2018-12-12T11:42:50.978Z,6.13
2018-12-12T11:45:17.428Z,4.90
2018-12-12T11:47:44.175Z,4.10
2018-12-12T11:50:10.874Z,4.70
2018-12-12T11:52:37.286Z,4.90
2018-12-12T11:55:03.900Z,5.90
2018-12-12T11:57:31.502Z,3.93
2018-12-12T11:59:58.349Z,5.53
2018-12-12T12:02:25.023Z,5.73
2018-12-12T12:04:51.575Z,6.90
2018-12-12T12:07:18.470Z,3.87
2018-12-12T12:09:45.065Z,3.60
2018-12-12T12:12:11.677Z,3.80
2018-12-12T12:14:38.125Z,3.50
2018-12-12T12:17:04.638Z,4.10
2018-12-12T12:19:31.092Z,3.60
2018-12-12T12:21:57.681Z,4.13
2018-12-12T12:24:24.375Z,5.13
2018-12-12T12:26:51.178Z,4.77
2018-12-12T12:29:17.757Z,3.40
2018-12-12T12:31:44.497Z,3.60
2018-12-12T12:34:10.954Z,3.50
2018-12-12T12:36:37.407Z,3.43
2018-12-12T12:39:05.614Z,3.47
2018-12-12T12:41:32.090Z,3.10
2018-12-12T12:43:58.697Z,5.13
2018-12-12T12:46:25.270Z,3.50
2018-12-12T12:48:51.753Z,2.97
2018-12-12T12:51:18.210Z,4.30
2018-12-12T12:53:44.827Z,4.10
2018-12-12T12:56:11.387Z,3.87
2018-12-12T12:58:38.085Z,4.23
2018-12-12T13:01:05.555Z,4.00
2018-12-12T13:03:32.046Z,3.97
2018-12-12T13:05:58.502Z,3.60
2018-12-12T13:08:24.986Z,4.43
2018-12-12T13:10:51.474Z,5.63
2018-12-12T13:13:18.444Z,6.00
2018-12-12T13:15:45.534Z,3.97
2018-12-12T13:18:12.529Z,4.47
2018-12-12T13:20:38.989Z,3.70
2018-12-12T13:23:05.644Z,3.70
2018-12-12T13:25:32.218Z,3.33
2018-12-12T13:27:58.715Z,3.67
2018-12-12T13:30:25.310Z,5.10
2018-12-12T13:32:51.941Z,3.93
2018-12-12T13:35:18.413Z,4.67
2018-12-12T13:37:44.866Z,5.40
2018-12-12T13:40:11.482Z,4.03
2018-12-12T13:42:38.042Z,4.47
2018-12-12T13:45:05.067Z,4.10
2018-12-12T13:47:31.561Z,4.00
2018-12-12T13:49:58.151Z,3.60
2018-12-12T13:52:24.750Z,3.47
2018-12-12T13:54:51.201Z,3.27
2018-12-12T13:57:17.756Z,3.83
2018-12-12T13:59:46.143Z,3.77
2018-12-12T14:02:12.650Z,3.53
2018-12-12T14:04:39.162Z,6.33
2018-12-12T14:07:06.079Z,4.63
2018-12-12T14:09:32.694Z,6.33
2018-12-12T14:11:59.173Z,4.47
2018-12-12T14:14:25.671Z,4.37
2018-12-12T14:16:52.197Z,4.30
2018-12-12T14:19:18.786Z,4.77
2018-12-12T14:21:45.518Z,4.77
2018-12-12T14:24:12.135Z,5.50
2018-12-12T14:26:38.645Z,6.17
2018-12-12T14:29:05.308Z,5.40
2018-12-12T14:31:31.824Z,6.33
2018-12-12T14:33:58.339Z,5.50
2018-12-12T14:36:24.941Z,4.17
2018-12-12T14:38:51.682Z,6.23
2018-12-12T14:41:18.764Z,8.10
2018-12-12T14:43:45.356Z,6.20
2018-12-12T14:46:11.978Z,5.07
2018-12-12T14:48:38.477Z,6.07
2018-12-12T14:51:05.137Z,5.03
2018-12-12T14:53:31.765Z,4.23
2018-12-12T14:55:58.301Z,6.90
2018-12-12T14:58:24.806Z,5.37
2018-12-12T15:00:51.326Z,5.00
2018-12-12T15:03:17.890Z,5.80
2018-12-12T15:05:44.346Z,4.33
2018-12-12T15:08:10.826Z,5.90
2018-12-12T15:10:37.283Z,3.83
2018-12-12T15:13:03.765Z,3.53
2018-12-12T15:15:30.279Z,6.37
2018-12-12T15:17:56.689Z,4.40
2018-12-12T15:20:23.250Z,4.17
2018-12-12T15:22:49.739Z,5.27
2018-12-12T15:25:16.336Z,5.33
2018-12-12T15:27:42.977Z,3.97
2018-12-12T15:30:09.496Z,3.40
2018-12-12T15:32:36.100Z,4.37
2018-12-12T15:35:02.994Z,4.43
2018-12-12T15:37:29.628Z,4.00
2018-12-12T15:39:56.330Z,3.93
2018-12-12T15:42:23.873Z,3.63
2018-12-12T15:44:50.347Z,7.57
2018-12-12T15:47:16.774Z,4.00
2018-12-12T15:49:43.230Z,5.03
2018-12-12T15:52:09.743Z,5.53
2018-12-12T15:54:36.220Z,4.47
2018-12-12T15:57:02.853Z,5.27
2018-12-12T15:59:29.481Z,4.03
2018-12-12T16:01:56.682Z,4.30
2018-12-12T16:04:23.282Z,4.87
2018-12-12T16:06:49.836Z,9.60
2018-12-12T16:09:16.419Z,4.77
2018-12-12T16:11:43.892Z,4.47
2018-12-12T16:14:13.117Z,4.47
2018-12-12T16:16:40.079Z,5.90
2018-12-12T16:19:06.598Z,4.87
2018-12-12T16:21:33.159Z,4.70
2018-12-12T16:23:59.886Z,9.37
2018-12-12T16:26:26.439Z,5.40
2018-12-12T16:28:53.785Z,5.80
2018-12-12T16:31:21.994Z,5.13
2018-12-12T16:33:49.369Z,4.60
2018-12-12T16:36:15.968Z,6.20
2018-12-12T16:38:42.576Z,6.50
2018-12-12T16:41:09.166Z,5.37
2018-12-12T16:43:35.773Z,4.83
2018-12-12T16:46:02.355Z,4.73
2018-12-12T16:48:28.866Z,5.67
2018-12-12T16:50:55.351Z,6.63
2018-12-12T16:53:21.965Z,5.03
2018-12-12T16:55:48.428Z,7.57
2018-12-12T16:58:14.913Z,5.33
2018-12-12T17:00:41.443Z,6.10
2018-12-12T17:03:08.007Z,6.63
2018-12-12T17:05:36.247Z,6.20
2018-12-12T17:08:02.827Z,5.70
2018-12-12T17:10:29.378Z,4.70
2018-12-12T17:12:55.986Z,5.90
2018-12-12T17:15:22.622Z,6.23
2018-12-12T17:17:49.134Z,6.47
2018-12-12T17:20:15.778Z,6.83
2018-12-12T17:22:42.277Z,7.63
2018-12-12T17:25:09.005Z,5.50
2018-12-12T17:27:35.483Z,4.60
2018-12-12T17:30:04.121Z,6.00
2018-12-12T17:32:30.623Z,8.70
2018-12-12T17:34:57.088Z,4.10
2018-12-12T17:37:23.591Z,4.43
2018-12-12T17:39:50.073Z,9.20
2018-12-12T17:42:16.658Z,5.53
2018-12-12T17:44:43.392Z,4.30
2018-12-12T17:47:09.878Z,3.20
2018-12-12T17:49:36.504Z,4.57
2018-12-12T17:52:03.609Z,3.17
2018-12-12T17:54:30.378Z,4.50
2018-12-12T17:56:56.976Z,5.43
2018-12-12T17:59:23.513Z,4.03
2018-12-12T18:01:50.097Z,3.80
2018-12-12T18:04:16.610Z,3.50
2018-12-12T18:06:43.150Z,2.83
2018-12-12T18:09:09.717Z,2.80
2018-12-12T18:11:36.250Z,3.13
2018-12-12T18:14:02.942Z,3.00
2018-12-12T18:16:29.466Z,3.60
2018-12-12T18:18:55.925Z,4.73
2018-12-12T18:21:22.437Z,4.50
2018-12-12T18:23:48.928Z,6.13
2018-12-12T18:26:15.609Z,3.20
2018-12-12T18:28:42.239Z,2.77
2018-12-12T18:31:08.806Z,2.83
2018-12-12T18:33:35.317Z,3.60
2018-12-12T18:36:01.997Z,3.07
2018-12-12T18:38:28.655Z,6.80
2018-12-12T18:40:55.262Z,5.57
2018-12-12T18:43:21.744Z,4.00
2018-12-12T18:45:48.341Z,3.40
2018-12-12T18:48:14.964Z,3.07
2018-12-12T18:50:41.445Z,4.30
2018-12-12T18:53:08.235Z,3.10
2018-12-12T18:55:34.838Z,3.17
2018-12-12T18:58:01.910Z,3.20
2018-12-12T19:00:28.887Z,3.80
2018-12-12T19:02:55.469Z,5.47
2018-12-12T19:05:28.107Z,4.10
2018-12-12T19:07:50.575Z,4.70
2018-12-12T19:10:18.905Z,4.07
2018-12-12T19:12:45.367Z,2.97
2018-12-12T19:15:12.031Z,3.63
2018-12-12T19:17:38.611Z,4.60
2018-12-12T19:20:06.102Z,3.13
2018-12-12T19:22:32.848Z,3.30
2018-12-12T19:24:59.615Z,3.70
2018-12-12T19:27:27.247Z,3.60
2018-12-12T19:29:53.901Z,3.77
2018-12-12T19:32:20.487Z,3.87
2018-12-12T19:34:49.834Z,3.70
2018-12-12T19:37:15.639Z,3.40
2018-12-12T19:39:42.252Z,4.50
2018-12-12T19:42:08.829Z,3.70
2018-12-12T19:44:35.520Z,4.93
2018-12-12T19:47:02.117Z,4.03
2018-12-12T19:49:28.596Z,4.60
2018-12-12T19:51:55.068Z,7.53
2018-12-12T19:54:21.588Z,4.40
2018-12-12T19:56:48.154Z,5.23
2018-12-12T19:59:14.898Z,5.57
2018-12-12T20:01:41.377Z,4.33
2018-12-12T20:04:07.935Z,3.70
2018-12-12T20:06:34.922Z,4.93
2018-12-12T20:09:01.613Z,4.27
2018-12-12T20:11:28.292Z,4.40
2018-12-12T20:13:55.078Z,3.80
2018-12-12T20:16:21.831Z,3.90
2018-12-12T20:18:48.329Z,4.10
2018-12-12T20:21:15.098Z,3.83
2018-12-12T20:23:42.366Z,4.10
2018-12-12T20:26:08.938Z,4.00
2018-12-12T20:28:35.656Z,4.37
2018-12-12T20:31:02.474Z,4.23
2018-12-12T20:33:29.042Z,4.30
2018-12-12T20:35:55.690Z,4.67
2018-12-12T20:38:22.411Z,5.37
2018-12-12T20:40:49.070Z,3.50
2018-12-12T20:43:15.829Z,3.77
2018-12-12T20:45:42.294Z,3.60
2018-12-12T20:48:09.367Z,3.20
2018-12-12T20:50:35.971Z,4.00
2018-12-12T20:53:02.470Z,3.10
2018-12-12T20:55:29.194Z,4.27
2018-12-12T20:57:55.901Z,4.80
2018-12-12T21:00:22.443Z,4.53
2018-12-12T21:02:48.955Z,3.90
2018-12-12T21:05:15.490Z,3.90
2018-12-12T21:07:42.500Z,3.37
2018-12-12T21:10:09.180Z,2.83
2018-12-12T21:12:35.669Z,3.20
2018-12-12T21:15:06.350Z,4.73
2018-12-12T21:17:33.024Z,4.23
2018-12-12T21:19:59.720Z,2.93
2018-12-12T21:22:27.057Z,2.87
2018-12-12T21:24:53.607Z,3.20
2018-12-12T21:27:20.093Z,4.03
2018-12-12T21:29:46.604Z,3.50
2018-12-12T21:32:13.217Z,3.67
2018-12-12T21:34:40.574Z,5.73
2018-12-12T21:37:07.194Z,3.13
2018-12-12T21:39:33.646Z,3.80
2018-12-12T21:42:00.102Z,3.00
2018-12-12T21:44:26.486Z,2.80
2018-12-12T21:46:53.126Z,3.50
2018-12-12T21:49:19.641Z,2.77
2018-12-12T21:51:46.527Z,2.67
2018-12-12T21:54:13.079Z,3.23
2018-12-12T21:56:39.645Z,2.70
2018-12-12T21:59:06.218Z,2.90
2018-12-12T22:01:33.509Z,2.70
2018-12-12T22:04:00.233Z,3.80
2018-12-12T22:06:26.926Z,3.60
2018-12-12T22:08:53.492Z,4.27
2018-12-12T22:11:20.140Z,3.43
2018-12-12T22:13:48.315Z,2.80
2018-12-12T22:16:15.005Z,2.73
2018-12-12T22:18:42.113Z,3.13
2018-12-12T22:21:08.667Z,3.30
2018-12-12T22:23:35.671Z,5.87
2018-12-12T22:26:02.290Z,3.53
2018-12-12T22:28:28.789Z,3.67
2018-12-12T22:30:55.351Z,4.20
2018-12-12T22:33:21.845Z,5.40
2018-12-12T22:35:48.427Z,3.47
2018-12-12T22:38:14.925Z,3.47
2018-12-12T22:40:41.481Z,3.53
2018-12-12T22:43:08.178Z,3.53
2018-12-12T22:45:34.773Z,3.40
2018-12-12T22:48:01.686Z,4.33
2018-12-12T22:50:28.242Z,3.50
2018-12-12T22:52:54.802Z,3.73
2018-12-12T22:55:21.294Z,3.33
2018-12-12T22:57:47.801Z,4.03
2018-12-12T23:00:20.695Z,3.70
2018-12-12T23:02:47.435Z,4.00
2018-12-12T23:05:15.058Z,4.10
2018-12-12T23:07:41.750Z,4.17
2018-12-12T23:10:08.229Z,7.07
2018-12-12T23:12:34.858Z,3.57
2018-12-12T23:15:02.884Z,4.23
2018-12-12T23:17:29.641Z,4.57
2018-12-12T23:19:57.340Z,6.30
2018-12-12T23:22:23.950Z,4.67
2018-12-12T23:24:51.237Z,4.80
2018-12-12T23:27:18.222Z,4.57
2018-12-12T23:29:45.106Z,5.27
2018-12-12T23:32:12.099Z,5.10
2018-12-12T23:34:38.654Z,5.17
2018-12-12T23:37:05.142Z,5.00
2018-12-12T23:39:31.706Z,4.67
2018-12-12T23:41:58.203Z,5.13
2018-12-12T23:44:24.667Z,5.00
2018-12-12T23:46:51.172Z,5.63
2018-12-12T23:49:17.634Z,7.27
2018-12-12T23:51:44.129Z,6.87
2018-12-12T23:54:10.603Z,4.60
2018-12-12T23:56:36.981Z,7.07
2018-12-12T23:59:03.579Z,7.70
